sensor_id;sensor_type;location;lat;lon;timestamp;pressure;altitude;pressure_sealevel;temperature;humidity
47763;BME280;33526;42.690;23.322;2023-04-30T00:02:11;94751.09;;;10.91;73.20
47763;BME280;33526;42.690;23.322;2023-04-30T00:04:37;94693.72;;;10.57;73.13
47763;BME280;33526;42.690;23.322;2023-04-30T00:07:02;94769.06;;;10.99;73.22
47763;BME280;33526;42.690;23.322;2023-04-30T00:09:28;94747.06;;;10.92;73.75
47763;BME280;33526;42.690;23.322;2023-04-30T00:11:53;94763.47;;;10.99;73.78
47763;BME280;33526;42.690;23.322;2023-04-30T00:14:18;94728.69;;;10.76;73.52
47763;BME280;33526;42.690;23.322;2023-04-30T00:16:44;94749.09;;;10.92;73.11
47763;BME280;33526;42.690;23.322;2023-04-30T00:19:09;94769.25;;;10.96;72.60
47763;BME280;33526;42.690;23.322;2023-04-30T00:21:35;94695.25;;;10.43;73.21
47763;BME280;33526;42.690;23.322;2023-04-30T00:24:00;94731.38;;;10.70;73.33
47763;BME280;33526;42.690;23.322;2023-04-30T00:26:26;94670.50;;;10.26;75.32
47763;BME280;33526;42.690;23.322;2023-04-30T00:28:51;94753.00;;;10.85;76.03
47763;BME280;33526;42.690;23.322;2023-04-30T00:31:17;94722.47;;;10.57;77.17
47763;BME280;33526;42.690;23.322;2023-04-30T00:33:42;94739.84;;;10.61;78.04
47763;BME280;33526;42.690;23.322;2023-04-30T00:36:08;94739.25;;;10.57;78.16
47763;BME280;33526;42.690;23.322;2023-04-30T00:38:33;94759.63;;;10.73;78.70
47763;BME280;33526;42.690;23.322;2023-04-30T00:40:59;94744.84;;;10.57;78.34
47763;BME280;33526;42.690;23.322;2023-04-30T00:43:24;94736.13;;;10.55;78.52
47763;BME280;33526;42.690;23.322;2023-04-30T00:45:49;94746.06;;;10.56;79.12
47763;BME280;33526;42.690;23.322;2023-04-30T00:48:15;94689.16;;;10.20;79.12
47763;BME280;33526;42.690;23.322;2023-04-30T00:50:42;94743.94;;;10.51;79.03
47763;BME280;33526;42.690;23.322;2023-04-30T00:53:08;94757.56;;;10.58;78.97
47763;BME280;33526;42.690;23.322;2023-04-30T00:55:33;94760.41;;;10.49;78.85
47763;BME280;33526;42.690;23.322;2023-04-30T00:57:59;94763.69;;;10.47;78.22
47763;BME280;33526;42.690;23.322;2023-04-30T01:00:26;94737.28;;;10.15;77.47
47763;BME280;33526;42.690;23.322;2023-04-30T01:02:51;94753.72;;;10.22;77.94
47763;BME280;33526;42.690;23.322;2023-04-30T01:05:17;94757.75;;;10.21;77.51
47763;BME280;33526;42.690;23.322;2023-04-30T01:07:43;94759.47;;;10.19;77.17
47763;BME280;33526;42.690;23.322;2023-04-30T01:10:14;94710.34;;;9.79;77.45
47763;BME280;33526;42.690;23.322;2023-04-30T01:12:57;94763.56;;;10.08;77.58
47763;BME280;33526;42.690;23.322;2023-04-30T01:18:30;94758.16;;;10.05;77.57
47763;BME280;33526;42.690;23.322;2023-04-30T01:21:03;94757.84;;;10.03;77.54
47763;BME280;33526;42.690;23.322;2023-04-30T01:28:45;94759.56;;;10.00;77.97
47763;BME280;33526;42.690;23.322;2023-04-30T01:31:12;94759.75;;;9.97;78.49
47763;BME280;33526;42.690;23.322;2023-04-30T01:33:38;94733.78;;;9.72;78.14
47763;BME280;33526;42.690;23.322;2023-04-30T01:42:08;94765.75;;;9.71;79.03
47763;BME280;33526;42.690;23.322;2023-04-30T01:44:53;94751.56;;;9.41;79.22
47763;BME280;33526;42.690;23.322;2023-04-30T01:47:39;94769.22;;;9.38;79.62
47763;BME280;33526;42.690;23.322;2023-04-30T01:50:41;94767.97;;;9.48;79.79
47763;BME280;33526;42.690;23.322;2023-04-30T01:53:20;94731.25;;;9.41;79.67
47763;BME280;33526;42.690;23.322;2023-04-30T01:56:17;94757.41;;;9.62;79.29
47763;BME280;33526;42.690;23.322;2023-04-30T01:58:37;94771.19;;;9.65;79.68
47763;BME280;33526;42.690;23.322;2023-04-30T02:01:04;94758.31;;;9.68;79.47
47763;BME280;33526;42.690;23.322;2023-04-30T02:03:29;94740.03;;;9.57;78.85
47763;BME280;33526;42.690;23.322;2023-04-30T02:05:56;94741.25;;;9.66;78.56
47763;BME280;33526;42.690;23.322;2023-04-30T02:08:23;94703.03;;;9.48;78.08
47763;BME280;33526;42.690;23.322;2023-04-30T02:10:48;94761.00;;;9.86;78.11
47763;BME280;33526;42.690;23.322;2023-04-30T02:13:14;94748.19;;;9.70;77.73
47763;BME280;33526;42.690;23.322;2023-04-30T02:15:39;94725.59;;;9.59;77.80
47763;BME280;33526;42.690;23.322;2023-04-30T02:18:05;94754.56;;;9.71;78.48
47763;BME280;33526;42.690;23.322;2023-04-30T02:20:30;94758.25;;;9.77;78.46
47763;BME280;33526;42.690;23.322;2023-04-30T02:22:56;94748.38;;;9.67;79.08
47763;BME280;33526;42.690;23.322;2023-04-30T02:25:21;94765.44;;;9.60;79.37
47763;BME280;33526;42.690;23.322;2023-04-30T02:27:47;94760.03;;;9.56;79.73
47763;BME280;33526;42.690;23.322;2023-04-30T02:30:14;94760.81;;;9.56;79.67
47763;BME280;33526;42.690;23.322;2023-04-30T02:32:40;94704.31;;;9.28;79.56
47763;BME280;33526;42.690;23.322;2023-04-30T02:35:05;94749.31;;;9.64;79.29
47763;BME280;33526;42.690;23.322;2023-04-30T02:37:31;94746.25;;;9.62;79.35
47763;BME280;33526;42.690;23.322;2023-04-30T02:39:56;94757.31;;;9.80;78.91
47763;BME280;33526;42.690;23.322;2023-04-30T02:42:22;94757.31;;;9.80;78.84
47763;BME280;33526;42.690;23.322;2023-04-30T02:44:47;94695.06;;;9.55;78.21
47763;BME280;33526;42.690;23.322;2023-04-30T02:47:12;94751.22;;;9.91;77.41
47763;BME280;33526;42.690;23.322;2023-04-30T02:49:38;94703.69;;;9.67;77.51
47763;BME280;33526;42.690;23.322;2023-04-30T02:52:04;94725.34;;;9.81;76.79
47763;BME280;33526;42.690;23.322;2023-04-30T02:54:30;94702.91;;;9.75;76.16
47763;BME280;33526;42.690;23.322;2023-04-30T02:56:55;94740.84;;;9.91;75.76
47763;BME280;33526;42.690;23.322;2023-04-30T02:59:20;94745.22;;;9.83;76.02
47763;BME280;33526;42.690;23.322;2023-04-30T03:01:46;94759.16;;;9.92;76.03
47763;BME280;33526;42.690;23.322;2023-04-30T03:07:23;94767.53;;;9.92;76.52
47763;BME280;33526;42.690;23.322;2023-04-30T03:09:49;94764.91;;;9.89;76.39
47763;BME280;33526;42.690;23.322;2023-04-30T03:12:14;94761.09;;;9.68;76.26
47763;BME280;33526;42.690;23.322;2023-04-30T03:14:40;94772.25;;;9.68;76.00
47763;BME280;33526;42.690;23.322;2023-04-30T03:17:06;94787.44;;;9.67;76.24
47763;BME280;33526;42.690;23.322;2023-04-30T03:19:31;94789.94;;;9.65;75.80
47763;BME280;33526;42.690;23.322;2023-04-30T03:21:57;94755.13;;;9.32;75.46
47763;BME280;33526;42.690;23.322;2023-04-30T03:24:22;94793.84;;;9.49;75.50
47763;BME280;33526;42.690;23.322;2023-04-30T03:26:49;94790.31;;;9.39;75.28
47763;BME280;33526;42.690;23.322;2023-04-30T03:29:15;94760.59;;;9.17;75.50
47763;BME280;33526;42.690;23.322;2023-04-30T03:31:40;94767.28;;;9.20;75.45
47763;BME280;33526;42.690;23.322;2023-04-30T03:34:06;94785.19;;;9.37;75.29
47763;BME280;33526;42.690;23.322;2023-04-30T03:36:31;94763.97;;;9.40;75.18
47763;BME280;33526;42.690;23.322;2023-04-30T03:38:57;94763.97;;;9.40;74.72
47763;BME280;33526;42.690;23.322;2023-04-30T03:41:22;94799.06;;;9.74;74.45
47763;BME280;33526;42.690;23.322;2023-04-30T03:43:48;94803.53;;;9.81;74.22
47763;BME280;33526;42.690;23.322;2023-04-30T03:46:14;94792.38;;;9.81;74.15
47763;BME280;33526;42.690;23.322;2023-04-30T03:48:39;94806.75;;;9.98;73.56
47763;BME280;33526;42.690;23.322;2023-04-30T03:51:05;94810.28;;;10.08;73.56
47763;BME280;33526;42.690;23.322;2023-04-30T03:53:30;94801.00;;;10.02;73.13
47763;BME280;33526;42.690;23.322;2023-04-30T03:55:56;94811.66;;;10.12;72.68
47763;BME280;33526;42.690;23.322;2023-04-30T03:58:22;94819.44;;;10.08;72.59
47763;BME280;33526;42.690;23.322;2023-04-30T04:00:47;94813.81;;;10.18;72.31
47763;BME280;33526;42.690;23.322;2023-04-30T04:03:14;94818.41;;;9.87;72.26
47763;BME280;33526;42.690;23.322;2023-04-30T04:05:39;94820.16;;;9.75;72.41
47763;BME280;33526;42.690;23.322;2023-04-30T04:08:05;94803.16;;;9.55;73.35
47763;BME280;33526;42.690;23.322;2023-04-30T04:10:31;94815.81;;;9.74;73.14
47763;BME280;33526;42.690;23.322;2023-04-30T04:12:56;94804.81;;;9.71;73.15
47763;BME280;33526;42.690;23.322;2023-04-30T04:15:22;94815.38;;;9.76;73.29
47763;BME280;33526;42.690;23.322;2023-04-30T04:17:48;94821.88;;;9.73;73.34
47763;BME280;33526;42.690;23.322;2023-04-30T04:20:13;94779.47;;;9.32;74.06
47763;BME280;33526;42.690;23.322;2023-04-30T04:22:39;94822.03;;;9.69;74.02
47763;BME280;33526;42.690;23.322;2023-04-30T04:25:05;94819.09;;;9.73;74.03
47763;BME280;33526;42.690;23.322;2023-04-30T04:27:31;94830.94;;;10.01;73.04
47763;BME280;33526;42.690;23.322;2023-04-30T04:29:56;94823.56;;;9.80;73.14
47763;BME280;33526;42.690;23.322;2023-04-30T04:32:22;94817.50;;;9.90;73.08
47763;BME280;33526;42.690;23.322;2023-04-30T04:34:48;94824.84;;;10.12;72.46
47763;BME280;33526;42.690;23.322;2023-04-30T04:37:14;94826.34;;;10.22;72.28
47763;BME280;33526;42.690;23.322;2023-04-30T04:39:41;94835.16;;;10.39;71.41
47763;BME280;33526;42.690;23.322;2023-04-30T04:42:07;94835.59;;;10.47;71.13
47763;BME280;33526;42.690;23.322;2023-04-30T04:44:32;94839.88;;;10.57;70.58
47763;BME280;33526;42.690;23.322;2023-04-30T04:46:58;94781.19;;;10.24;69.97
47763;BME280;33526;42.690;23.322;2023-04-30T04:49:23;94840.22;;;10.50;70.28
47763;BME280;33526;42.690;23.322;2023-04-30T04:51:48;94835.59;;;10.47;70.53
47763;BME280;33526;42.690;23.322;2023-04-30T04:54:14;94816.03;;;10.47;69.84
47763;BME280;33526;42.690;23.322;2023-04-30T04:56:40;94832.31;;;10.48;69.66
47763;BME280;33526;42.690;23.322;2023-04-30T04:59:05;94845.72;;;10.68;69.53
47763;BME280;33526;42.690;23.322;2023-04-30T05:01:30;94847.50;;;10.81;69.24
47763;BME280;33526;42.690;23.322;2023-04-30T05:03:56;94836.50;;;10.77;69.48
47763;BME280;33526;42.690;23.322;2023-04-30T05:06:21;94858.28;;;10.97;68.92
47763;BME280;33526;42.690;23.322;2023-04-30T05:08:47;94857.63;;;11.02;69.10
47763;BME280;33526;42.690;23.322;2023-04-30T05:11:12;94839.72;;;10.85;68.99
47763;BME280;33526;42.690;23.322;2023-04-30T05:13:37;94844.41;;;11.03;68.88
47763;BME280;33526;42.690;23.322;2023-04-30T05:16:03;94848.69;;;11.13;68.68
47763;BME280;33526;42.690;23.322;2023-04-30T05:18:29;94855.88;;;11.29;68.39
47763;BME280;33526;42.690;23.322;2023-04-30T05:20:54;94851.16;;;11.50;67.60
47763;BME280;33526;42.690;23.322;2023-04-30T05:23:19;94835.16;;;11.51;66.91
47763;BME280;33526;42.690;23.322;2023-04-30T05:25:45;94839.50;;;11.52;66.55
47763;BME280;33526;42.690;23.322;2023-04-30T05:28:10;94851.16;;;11.50;66.77
47763;BME280;33526;42.690;23.322;2023-04-30T05:30:36;94850.41;;;11.50;66.63
47763;BME280;33526;42.690;23.322;2023-04-30T05:33:02;94854.97;;;11.23;67.67
47763;BME280;33526;42.690;23.322;2023-04-30T05:35:27;94824.22;;;10.99;68.11
47763;BME280;33526;42.690;23.322;2023-04-30T05:37:54;94859.50;;;10.96;69.20
47763;BME280;33526;42.690;23.322;2023-04-30T05:40:20;94853.81;;;11.15;68.78
47763;BME280;33526;42.690;23.322;2023-04-30T05:42:45;94857.09;;;11.13;68.50
47763;BME280;33526;42.690;23.322;2023-04-30T05:45:11;94858.22;;;11.06;68.91
47763;BME280;33526;42.690;23.322;2023-04-30T05:47:39;94847.84;;;11.22;68.81
47763;BME280;33526;42.690;23.322;2023-04-30T05:50:05;94850.59;;;11.46;67.92
47763;BME280;33526;42.690;23.322;2023-04-30T05:52:31;94842.69;;;11.59;67.06
47763;BME280;33526;42.690;23.322;2023-04-30T05:54:56;94845.81;;;11.76;66.49
47763;BME280;33526;42.690;23.322;2023-04-30T05:57:28;94848.03;;;11.72;66.57
47763;BME280;33526;42.690;23.322;2023-04-30T05:59:53;94849.06;;;11.75;66.54
47763;BME280;33526;42.690;23.322;2023-04-30T06:02:19;94858.81;;;11.50;67.13
47763;BME280;33526;42.690;23.322;2023-04-30T06:04:44;94850.03;;;11.57;66.40
47763;BME280;33526;42.690;23.322;2023-04-30T06:07:10;94854.25;;;11.37;67.91
47763;BME280;33526;42.690;23.322;2023-04-30T06:09:35;94864.47;;;11.40;68.02
47763;BME280;33526;42.690;23.322;2023-04-30T06:12:00;94858.03;;;11.49;67.41
47763;BME280;33526;42.690;23.322;2023-04-30T06:14:26;94854.16;;;11.46;67.86
47763;BME280;33526;42.690;23.322;2023-04-30T06:16:52;94842.56;;;11.39;68.17
47763;BME280;33526;42.690;23.322;2023-04-30T06:19:18;94821.91;;;10.97;68.86
47763;BME280;33526;42.690;23.322;2023-04-30T06:21:43;94855.19;;;11.34;68.71
47763;BME280;33526;42.690;23.322;2023-04-30T06:24:09;94861.66;;;11.79;68.06
47763;BME280;33526;42.690;23.322;2023-04-30T06:26:35;94852.84;;;11.86;66.47
47763;BME280;33526;42.690;23.322;2023-04-30T06:29:00;94877.03;;;12.14;65.89
47763;BME280;33526;42.690;23.322;2023-04-30T06:31:25;94861.94;;;11.81;66.30
47763;BME280;33526;42.690;23.322;2023-04-30T06:33:51;94854.59;;;11.69;66.49
47763;BME280;33526;42.690;23.322;2023-04-30T06:36:16;94880.31;;;11.43;67.64
47763;BME280;33526;42.690;23.322;2023-04-30T06:38:44;94885.94;;;11.43;68.04
47763;BME280;33526;42.690;23.322;2023-04-30T06:41:11;94877.16;;;11.51;67.11
47763;BME280;33526;42.690;23.322;2023-04-30T06:43:36;94870.09;;;11.55;66.49
47763;BME280;33526;42.690;23.322;2023-04-30T06:46:02;94849.94;;;11.51;66.39
47763;BME280;33526;42.690;23.322;2023-04-30T06:48:28;94841.34;;;11.55;66.20
47763;BME280;33526;42.690;23.322;2023-04-30T06:50:53;94854.88;;;11.86;65.83
47763;BME280;33526;42.690;23.322;2023-04-30T06:53:19;94863.19;;;12.40;64.34
47763;BME280;33526;42.690;23.322;2023-04-30T06:55:44;94864.81;;;12.82;63.14
47763;BME280;33526;42.690;23.322;2023-04-30T06:58:13;94880.91;;;13.23;61.70
47763;BME280;33526;42.690;23.322;2023-04-30T07:00:39;94871.00;;;13.68;60.45
47763;BME280;33526;42.690;23.322;2023-04-30T07:03:04;94875.84;;;13.88;59.23
47763;BME280;33526;42.690;23.322;2023-04-30T07:05:31;94876.88;;;14.17;58.33
47763;BME280;33526;42.690;23.322;2023-04-30T07:07:57;94836.38;;;14.03;57.83
47763;BME280;33526;42.690;23.322;2023-04-30T07:10:23;94885.97;;;14.38;58.02
47763;BME280;33526;42.690;23.322;2023-04-30T07:12:48;94869.81;;;14.01;58.05
47763;BME280;33526;42.690;23.322;2023-04-30T07:15:14;94862.97;;;13.82;58.90
47763;BME280;33526;42.690;23.322;2023-04-30T07:17:40;94869.38;;;14.08;58.21
47763;BME280;33526;42.690;23.322;2023-04-30T07:20:07;94878.25;;;14.01;58.99
47763;BME280;33526;42.690;23.322;2023-04-30T07:22:32;94890.53;;;14.04;59.26
47763;BME280;33526;42.690;23.322;2023-04-30T07:24:58;94886.41;;;13.99;58.99
47763;BME280;33526;42.690;23.322;2023-04-30T07:27:25;94869.25;;;13.97;58.82
47763;BME280;33526;42.690;23.322;2023-04-30T07:29:50;94879.59;;;14.38;58.35
47763;BME280;33526;42.690;23.322;2023-04-30T07:32:16;94871.19;;;14.43;57.98
47763;BME280;33526;42.690;23.322;2023-04-30T07:34:41;94876.56;;;14.73;57.73
47763;BME280;33526;42.690;23.322;2023-04-30T07:37:07;94875.53;;;15.14;55.91
47763;BME280;33526;42.690;23.322;2023-04-30T07:39:33;94874.16;;;14.98;55.65
47763;BME280;33526;42.690;23.322;2023-04-30T07:41:59;94885.28;;;15.18;55.53
47763;BME280;33526;42.690;23.322;2023-04-30T07:44:27;94886.13;;;15.36;55.73
47763;BME280;33526;42.690;23.322;2023-04-30T07:46:52;94886.06;;;15.24;54.36
47763;BME280;33526;42.690;23.322;2023-04-30T07:49:18;94884.16;;;15.53;54.34
47763;BME280;33526;42.690;23.322;2023-04-30T07:51:43;94877.72;;;15.47;53.58
47763;BME280;33526;42.690;23.322;2023-04-30T07:54:08;94865.22;;;15.59;53.20
47763;BME280;33526;42.690;23.322;2023-04-30T07:56:34;94859.94;;;15.95;52.16
47763;BME280;33526;42.690;23.322;2023-04-30T07:59:00;94885.38;;;16.18;51.97
47763;BME280;33526;42.690;23.322;2023-04-30T08:01:25;94886.38;;;16.15;52.05
47763;BME280;33526;42.690;23.322;2023-04-30T08:03:51;94876.94;;;16.52;51.10
47763;BME280;33526;42.690;23.322;2023-04-30T08:06:16;94867.19;;;16.58;50.40
47763;BME280;33526;42.690;23.322;2023-04-30T08:08:42;94879.75;;;16.57;50.20
47763;BME280;33526;42.690;23.322;2023-04-30T08:11:07;94869.00;;;16.44;50.19
47763;BME280;33526;42.690;23.322;2023-04-30T08:13:32;94893.09;;;16.34;50.75
47763;BME280;33526;42.690;23.322;2023-04-30T08:15:58;94857.69;;;16.44;50.28
47763;BME280;33526;42.690;23.322;2023-04-30T08:18:23;94874.88;;;16.30;50.90
47763;BME280;33526;42.690;23.322;2023-04-30T08:20:49;94873.09;;;16.32;50.54
47763;BME280;33526;42.690;23.322;2023-04-30T08:23:17;94900.78;;;16.28;51.02
47763;BME280;33526;42.690;23.322;2023-04-30T08:25:43;94891.50;;;15.99;51.25
47763;BME280;33526;42.690;23.322;2023-04-30T08:28:08;94901.69;;;15.80;51.68
47763;BME280;33526;42.690;23.322;2023-04-30T08:30:34;94894.25;;;15.77;52.18
47763;BME280;33526;42.690;23.322;2023-04-30T08:32:59;94832.91;;;15.49;51.92
47763;BME280;33526;42.690;23.322;2023-04-30T08:35:25;94890.47;;;16.02;51.99
47763;BME280;33526;42.690;23.322;2023-04-30T08:37:50;94823.25;;;15.67;51.40
47763;BME280;33526;42.690;23.322;2023-04-30T08:40:17;94862.28;;;16.02;51.23
47763;BME280;33526;42.690;23.322;2023-04-30T08:43:04;94895.91;;;16.68;49.41
47763;BME280;33526;42.690;23.322;2023-04-30T08:45:31;94885.66;;;16.76;49.70
47763;BME280;33526;42.690;23.322;2023-04-30T08:47:58;94882.84;;;16.76;49.22
47763;BME280;33526;42.690;23.322;2023-04-30T08:50:24;94852.31;;;16.86;48.47
47763;BME280;33526;42.690;23.322;2023-04-30T08:52:49;94885.09;;;17.12;48.28
47763;BME280;33526;42.690;23.322;2023-04-30T08:55:15;94850.75;;;16.85;48.53
47763;BME280;33526;42.690;23.322;2023-04-30T08:57:40;94875.41;;;16.73;49.51
47763;BME280;33526;42.690;23.322;2023-04-30T09:00:06;94854.59;;;16.65;49.01
47763;BME280;33526;42.690;23.322;2023-04-30T09:02:33;94867.94;;;16.98;49.04
47763;BME280;33526;42.690;23.322;2023-04-30T09:04:58;94835.59;;;16.82;49.07
47763;BME280;33526;42.690;23.322;2023-04-30T09:07:25;94858.66;;;17.15;48.01
47763;BME280;33526;42.690;23.322;2023-04-30T09:09:53;94829.09;;;17.16;47.46
47763;BME280;33526;42.690;23.322;2023-04-30T09:12:19;94837.06;;;17.29;47.50
47763;BME280;33526;42.690;23.322;2023-04-30T09:15:02;94846.72;;;17.50;47.12
47763;BME280;33526;42.690;23.322;2023-04-30T09:17:28;94829.56;;;17.84;45.50
47763;BME280;33526;42.690;23.322;2023-04-30T09:20:13;94835.53;;;18.22;44.63
47763;BME280;33526;42.690;23.322;2023-04-30T09:22:40;94843.13;;;18.39;44.11
47763;BME280;33526;42.690;23.322;2023-04-30T09:25:07;94836.81;;;18.57;43.90
47763;BME280;33526;42.690;23.322;2023-04-30T09:27:33;94835.13;;;18.07;44.48
47763;BME280;33526;42.690;23.322;2023-04-30T09:29:59;94817.56;;;18.50;43.83
47763;BME280;33526;42.690;23.322;2023-04-30T09:32:25;94805.13;;;18.89;42.93
47763;BME280;33526;42.690;23.322;2023-04-30T09:34:51;94815.44;;;19.11;42.40
47763;BME280;33526;42.690;23.322;2023-04-30T09:37:17;94810.75;;;19.38;41.90
47763;BME280;33526;42.690;23.322;2023-04-30T09:40:01;94804.13;;;19.30;41.14
47763;BME280;33526;42.690;23.322;2023-04-30T09:42:26;94783.81;;;19.51;40.11
47763;BME280;33526;42.690;23.322;2023-04-30T09:44:52;94776.28;;;19.72;40.26
47763;BME280;33526;42.690;23.322;2023-04-30T09:47:18;94801.66;;;19.64;40.69
47763;BME280;33526;42.690;23.322;2023-04-30T09:49:50;94817.91;;;19.45;41.09
47763;BME280;33526;42.690;23.322;2023-04-30T09:52:17;94810.25;;;18.90;42.00
47763;BME280;33526;42.690;23.322;2023-04-30T09:54:44;94810.22;;;18.96;42.22
47763;BME280;33526;42.690;23.322;2023-04-30T09:57:12;94813.59;;;19.14;41.57
47763;BME280;33526;42.690;23.322;2023-04-30T09:59:45;94784.06;;;19.09;41.75
47763;BME280;33526;42.690;23.322;2023-04-30T10:02:13;94813.66;;;19.33;41.21
47763;BME280;33526;42.690;23.322;2023-04-30T10:04:42;94752.72;;;18.77;41.74
47763;BME280;33526;42.690;23.322;2023-04-30T10:09:41;94740.50;;;18.08;43.25
47763;BME280;33526;42.690;23.322;2023-04-30T10:12:21;94792.91;;;19.00;42.31
47763;BME280;33526;42.690;23.322;2023-04-30T10:14:56;94762.88;;;18.91;41.52
47763;BME280;33526;42.690;23.322;2023-04-30T10:17:26;94770.00;;;19.41;40.33
47763;BME280;33526;42.690;23.322;2023-04-30T10:19:56;94777.00;;;19.59;40.09
47763;BME280;33526;42.690;23.322;2023-04-30T10:22:24;94780.69;;;19.10;40.53
47763;BME280;33526;42.690;23.322;2023-04-30T10:24:50;94807.91;;;18.34;42.52
47763;BME280;33526;42.690;23.322;2023-04-30T10:27:16;94811.81;;;17.42;46.22
47763;BME280;33526;42.690;23.322;2023-04-30T10:29:43;94843.84;;;16.69;52.84
47763;BME280;33526;42.690;23.322;2023-04-30T10:32:10;94812.19;;;15.58;59.15
47763;BME280;33526;42.690;23.322;2023-04-30T10:34:42;94851.75;;;15.20;64.17
47763;BME280;33526;42.690;23.322;2023-04-30T10:37:14;94857.13;;;14.43;61.79
47763;BME280;33526;42.690;23.322;2023-04-30T10:39:40;94854.69;;;14.25;65.80
47763;BME280;33526;42.690;23.322;2023-04-30T10:42:08;94846.34;;;14.36;66.08
47763;BME280;33526;42.690;23.322;2023-04-30T10:44:38;94806.22;;;14.36;66.26
47763;BME280;33526;42.690;23.322;2023-04-30T10:47:05;94843.09;;;14.81;60.57
47763;BME280;33526;42.690;23.322;2023-04-30T10:49:31;94790.88;;;14.74;61.21
47763;BME280;33526;42.690;23.322;2023-04-30T10:52:01;94795.69;;;15.17;60.82
47763;BME280;33526;42.690;23.322;2023-04-30T10:54:29;94826.13;;;15.90;60.75
47763;BME280;33526;42.690;23.322;2023-04-30T10:57:09;94830.53;;;16.19;57.37
47763;BME280;33526;42.690;23.322;2023-04-30T10:59:36;94823.06;;;16.21;54.71
47763;BME280;33526;42.690;23.322;2023-04-30T11:02:01;94816.41;;;16.36;55.19
47763;BME280;33526;42.690;23.322;2023-04-30T11:04:27;94828.16;;;16.85;54.12
47763;BME280;33526;42.690;23.322;2023-04-30T11:07:09;94821.91;;;17.20;51.72
47763;BME280;33526;42.690;23.322;2023-04-30T11:09:42;94783.56;;;17.42;53.56
47763;BME280;33526;42.690;23.322;2023-04-30T11:12:19;94806.13;;;18.37;49.97
47763;BME280;33526;42.690;23.322;2023-04-30T11:14:45;94789.19;;;18.25;49.37
47763;BME280;33526;42.690;23.322;2023-04-30T11:17:21;94804.34;;;17.98;49.43
47763;BME280;33526;42.690;23.322;2023-04-30T11:19:50;94804.91;;;18.26;47.63
47763;BME280;33526;42.690;23.322;2023-04-30T11:22:21;94799.81;;;18.19;46.47
47763;BME280;33526;42.690;23.322;2023-04-30T11:25:03;94809.63;;;17.71;49.02
47763;BME280;33526;42.690;23.322;2023-04-30T11:27:31;94801.13;;;17.71;49.49
47763;BME280;33526;42.690;23.322;2023-04-30T11:29:57;94783.19;;;17.63;48.71
47763;BME280;33526;42.690;23.322;2023-04-30T11:32:25;94790.53;;;17.77;49.34
47763;BME280;33526;42.690;23.322;2023-04-30T11:34:51;94786.28;;;17.65;48.29
47763;BME280;33526;42.690;23.322;2023-04-30T11:37:27;94792.38;;;18.16;48.14
47763;BME280;33526;42.690;23.322;2023-04-30T11:39:55;94807.44;;;17.47;51.75
47763;BME280;33526;42.690;23.322;2023-04-30T11:42:21;94794.78;;;16.95;53.81
47763;BME280;33526;42.690;23.322;2023-04-30T11:44:47;94769.78;;;17.16;52.67
47763;BME280;33526;42.690;23.322;2023-04-30T11:47:13;94730.81;;;17.03;52.28
47763;BME280;33526;42.690;23.322;2023-04-30T11:49:39;94750.81;;;17.16;52.80
47763;BME280;33526;42.690;23.322;2023-04-30T11:52:05;94720.88;;;16.96;54.16
47763;BME280;33526;42.690;23.322;2023-04-30T11:54:34;94766.47;;;17.65;53.74
47763;BME280;33526;42.690;23.322;2023-04-30T11:56:59;94777.78;;;17.65;54.72
47763;BME280;33526;42.690;23.322;2023-04-30T11:59:31;94789.31;;;18.14;52.70
47763;BME280;33526;42.690;23.322;2023-04-30T12:02:05;94737.38;;;17.75;51.22
47763;BME280;33526;42.690;23.322;2023-04-30T12:04:31;94783.28;;;17.93;50.86
47763;BME280;33526;42.690;23.322;2023-04-30T12:06:56;94799.09;;;17.66;52.05
47763;BME280;33526;42.690;23.322;2023-04-30T12:09:22;94791.13;;;17.64;52.23
47763;BME280;33526;42.690;23.322;2023-04-30T12:11:48;94810.53;;;17.43;52.58
47763;BME280;33526;42.690;23.322;2023-04-30T12:14:13;94778.03;;;17.14;53.43
47763;BME280;33526;42.690;23.322;2023-04-30T12:16:47;94816.97;;;17.38;52.57
47763;BME280;33526;42.690;23.322;2023-04-30T12:19:14;94785.88;;;16.57;52.32
47763;BME280;33526;42.690;23.322;2023-04-30T12:21:42;94835.88;;;16.56;54.18
47763;BME280;33526;42.690;23.322;2023-04-30T12:24:12;94839.72;;;16.02;57.13
47763;BME280;33526;42.690;23.322;2023-04-30T12:26:39;94804.75;;;15.43;62.94
47763;BME280;33526;42.690;23.322;2023-04-30T12:29:14;94812.88;;;15.36;66.24
47763;BME280;33526;42.690;23.322;2023-04-30T12:31:40;94789.94;;;14.94;66.18
47763;BME280;33526;42.690;23.322;2023-04-30T12:34:11;94837.16;;;15.22;66.32
47763;BME280;33526;42.690;23.322;2023-04-30T12:36:38;94832.25;;;15.11;65.17
47763;BME280;33526;42.690;23.322;2023-04-30T12:39:12;94832.09;;;15.32;66.04
47763;BME280;33526;42.690;23.322;2023-04-30T12:41:45;94828.31;;;15.57;65.92
47763;BME280;33526;42.690;23.322;2023-04-30T12:44:23;94816.13;;;15.83;65.47
47763;BME280;33526;42.690;23.322;2023-04-30T12:46:51;94772.06;;;16.14;66.29
47763;BME280;33526;42.690;23.322;2023-04-30T12:51:50;94828.34;;;17.15;60.40
47763;BME280;33526;42.690;23.322;2023-04-30T12:54:29;94793.97;;;17.11;58.13
47763;BME280;33526;42.690;23.322;2023-04-30T12:57:01;94812.31;;;17.46;58.44
47763;BME280;33526;42.690;23.322;2023-04-30T12:59:31;94810.50;;;17.49;56.74
47763;BME280;33526;42.690;23.322;2023-04-30T13:02:17;94831.00;;;17.61;56.93
47763;BME280;33526;42.690;23.322;2023-04-30T13:04:43;94813.22;;;17.66;57.60
47763;BME280;33526;42.690;23.322;2023-04-30T13:07:09;94821.56;;;17.41;55.44
47763;BME280;33526;42.690;23.322;2023-04-30T13:09:36;94820.03;;;17.40;56.36
47763;BME280;33526;42.690;23.322;2023-04-30T13:12:03;94782.56;;;17.34;55.95
47763;BME280;33526;42.690;23.322;2023-04-30T13:14:31;94801.06;;;17.35;55.17
47763;BME280;33526;42.690;23.322;2023-04-30T13:16:57;94800.47;;;17.48;57.68